Time;durP1;ratioP1;P1;durP2;ratioP2;P2;SDS_P1;SDS_P2;PMS_P1;PMS_P2;Temp;Humidity;BMP_temperature;BMP_pressure;BME280_temperature;BME280_humidity;BME280_pressure;Samples;Min_cycle;Max_cycle;Signal;HPM_P1;HPM_P2
2022/03/18 00:00:24;;;;;;;16.57;11.30;;;3.30;99.90;;;;;;4997959;28;20213;-63
2022/03/18 00:02:53;;;;;;;16.10;11.73;;;3.30;99.90;;;;;;4996377;28;20230;-62
2022/03/18 00:05:21;;;;;;;20.50;12.07;;;3.30;93.10;;;;;;4997421;28;20204;-63
2022/03/18 00:07:52;;;;;;;26.63;12.33;;;3.30;87.80;;;;;;4984236;28;20213;-62
2022/03/18 00:10:19;;;;;;;21.83;13.87;;;3.20;95.50;;;;;;4997980;28;20200;-62
2022/03/18 00:12:48;;;;;;;27.37;14.87;;;3.30;99.90;;;;;;4997879;28;20261;-62
2022/03/18 00:15:17;;;;;;;23.60;13.90;;;3.20;99.90;;;;;;4999124;28;20198;-62
2022/03/18 00:17:46;;;;;;;24.03;15.13;;;3.20;99.90;;;;;;4981285;28;20720;-63
2022/03/18 00:20:13;;;;;;;26.27;14.80;;;3.20;99.90;;;;;;4985281;28;20186;-62
2022/03/18 00:22:46;;;;;;;27.60;14.60;;;3.20;99.90;;;;;;4982568;28;20222;-62
2022/03/18 00:25:15;;;;;;;22.37;14.17;;;3.10;99.90;;;;;;4987184;28;20198;-62
2022/03/18 00:27:44;;;;;;;25.80;15.07;;;3.20;99.90;;;;;;4997337;28;20217;-61
2022/03/18 00:30:16;;;;;;;24.07;13.80;;;3.10;99.90;;;;;;4997665;28;20202;-62
2022/03/18 00:32:44;;;;;;;23.40;13.40;;;3.10;99.90;;;;;;4980598;28;20209;-62
2022/03/18 00:35:31;;;;;;;19.53;12.90;;;3.10;99.90;;;;;;4989024;28;20196;-62
2022/03/18 00:38:02;;;;;;;22.37;13.87;;;3.00;99.90;;;;;;4993914;28;20697;-62
2022/03/18 00:40:30;;;;;;;24.33;13.90;;;3.00;99.90;;;;;;4998314;28;20202;-62
2022/03/18 00:43:00;;;;;;;28.67;14.13;;;3.00;99.90;;;;;;4982279;28;20238;-62
2022/03/18 00:45:30;;;;;;;22.50;14.10;;;2.90;99.90;;;;;;4996684;28;20199;-61
2022/03/18 00:53:29;;;;;;;23.37;13.10;;;2.90;1.00;;;;;;4983651;28;20661;-61
2022/03/18 00:55:56;;;;;;;21.33;13.70;;;2.90;99.90;;;;;;4983315;28;20260;-62
2022/03/18 00:58:26;;;;;;;20.93;13.43;;;2.90;99.90;;;;;;4981780;28;20400;-61
2022/03/18 01:00:53;;;;;;;25.97;14.53;;;2.90;99.90;;;;;;4982656;28;20212;-61
2022/03/18 01:03:21;;;;;;;21.40;13.27;;;2.80;99.90;;;;;;4986426;28;20202;-62
2022/03/18 01:05:48;;;;;;;20.23;13.03;;;2.80;1.00;;;;;;4980398;28;20245;-62
2022/03/18 01:08:15;;;;;;;21.77;13.20;;;2.80;1.00;;;;;;4994577;28;20802;-61
2022/03/18 01:10:41;;;;;;;20.60;13.73;;;2.70;99.90;;;;;;4980744;28;20186;-61
2022/03/18 01:13:08;;;;;;;20.50;13.40;;;2.70;1.00;;;;;;4980443;28;20194;-61
2022/03/18 01:15:35;;;;;;;24.73;13.23;;;2.60;1.00;;;;;;4986092;28;20198;-61
2022/03/18 01:18:05;;;;;;;20.37;12.53;;;2.60;1.00;;;;;;4996421;28;20736;-61
2022/03/18 01:20:34;;;;;;;23.70;13.13;;;2.60;99.90;;;;;;4996313;28;20267;-61
2022/03/18 01:23:03;;;;;;;19.40;13.30;;;2.60;1.00;;;;;;4982258;28;20229;-62
2022/03/18 01:25:35;;;;;;;20.40;13.00;;;2.50;1.00;;;;;;4987678;28;20267;-62
2022/03/18 01:28:06;;;;;;;24.03;13.50;;;2.50;1.00;;;;;;4986991;28;20221;-61
2022/03/18 01:30:33;;;;;;;18.77;13.20;;;2.50;1.00;;;;;;4971027;28;20669;-63
2022/03/18 01:33:00;;;;;;;25.97;12.00;;;2.50;1.00;;;;;;4987493;28;20196;-62
2022/03/18 01:35:28;;;;;;;21.73;12.13;;;2.50;1.00;;;;;;4981454;28;20285;-61
2022/03/18 01:37:58;;;;;;;17.87;11.83;;;2.50;1.00;;;;;;4995960;28;20197;-61
2022/03/18 01:40:24;;;;;;;24.57;14.90;;;2.40;1.00;;;;;;4997975;28;20209;-62
2022/03/18 01:42:54;;;;;;;26.83;17.13;;;2.40;1.00;;;;;;4997797;28;20680;-61
2022/03/18 01:45:21;;;;;;;27.50;14.57;;;2.30;1.00;;;;;;4998055;28;20201;-61
2022/03/18 01:47:48;;;;;;;25.80;13.97;;;2.30;1.00;;;;;;4994445;28;20672;-63
2022/03/18 01:50:15;;;;;;;21.63;14.17;;;2.30;1.00;;;;;;4971638;28;20289;-62
2022/03/18 01:52:44;;;;;;;20.13;12.77;;;2.30;1.00;;;;;;4996575;28;20205;-62
2022/03/18 01:55:15;;;;;;;23.87;14.00;;;2.30;1.00;;;;;;4981267;28;20199;-63
2022/03/18 01:57:46;;;;;;;21.60;14.23;;;2.20;1.00;;;;;;4980246;28;20237;-62
2022/03/18 02:00:18;;;;;;;21.83;13.70;;;2.20;1.00;;;;;;4982952;28;20197;-61
2022/03/18 02:02:46;;;;;;;24.97;16.60;;;2.20;1.00;;;;;;4981461;28;20205;-61
2022/03/18 02:05:14;;;;;;;26.80;15.60;;;2.20;1.00;;;;;;4971907;28;20227;-62
2022/03/18 02:07:41;;;;;;;22.73;14.13;;;2.20;1.00;;;;;;4995141;28;20205;-62
2022/03/18 02:10:09;;;;;;;22.47;13.70;;;2.20;1.00;;;;;;4988029;28;20217;-61
2022/03/18 02:12:39;;;;;;;21.13;13.63;;;2.10;1.00;;;;;;4995915;28;20834;-62
2022/03/18 02:15:06;;;;;;;22.20;14.30;;;2.10;1.00;;;;;;4980019;28;20204;-61
2022/03/18 02:17:33;;;;;;;18.83;13.00;;;2.10;1.00;;;;;;4994884;28;20205;-61
2022/03/18 02:20:00;;;;;;;21.00;12.50;;;2.10;1.00;;;;;;4995397;28;20606;-62
2022/03/18 02:22:35;;;;;;;28.67;13.20;;;2.10;1.00;;;;;;4986546;28;20313;-61
2022/03/18 02:25:02;;;;;;;22.20;12.70;;;2.10;99.90;;;;;;4997108;28;20221;-61
2022/03/18 02:27:29;;;;;;;19.53;11.47;;;2.00;99.90;;;;;;4984889;28;20669;-61
2022/03/18 02:29:59;;;;;;;20.40;12.57;;;2.00;1.00;;;;;;4986426;28;20256;-61
2022/03/18 02:32:29;;;;;;;16.07;11.03;;;2.00;1.00;;;;;;5000059;28;20249;-61
2022/03/18 02:35:01;;;;;;;18.73;11.43;;;2.00;99.90;;;;;;4990572;28;20222;-61
2022/03/18 02:37:28;;;;;;;19.67;11.03;;;2.00;99.90;;;;;;4989545;28;20228;-62
2022/03/18 02:39:55;;;;;;;20.23;10.60;;;2.00;1.00;;;;;;4985019;28;20289;-62
2022/03/18 02:42:23;;;;;;;24.90;11.27;;;2.00;1.00;;;;;;4990867;28;20361;-61
2022/03/18 02:44:53;;;;;;;16.57;10.33;;;2.00;1.00;;;;;;5008425;28;20240;-61
2022/03/18 02:47:20;;;;;;;18.60;10.60;;;2.00;1.00;;;;;;4994425;28;20186;-61
2022/03/18 02:49:48;;;;;;;14.47;9.57;;;2.00;1.00;;;;;;5003759;28;20218;-62
2022/03/18 02:52:15;;;;;;;16.33;10.07;;;2.00;1.00;;;;;;4987542;28;20202;-62
2022/03/18 02:54:42;;;;;;;14.33;10.07;;;2.00;1.00;;;;;;4992777;28;20225;-62
2022/03/18 02:57:12;;;;;;;14.37;10.10;;;2.00;1.00;;;;;;4987267;28;20213;-63
2022/03/18 02:59:39;;;;;;;23.23;10.70;;;2.00;1.00;;;;;;5001297;28;20218;-62
2022/03/18 03:02:07;;;;;;;15.30;9.53;;;1.90;1.00;;;;;;4990905;28;20230;-63
2022/03/18 03:04:34;;;;;;;15.27;9.50;;;1.90;1.00;;;;;;4985914;28;20214;-61
2022/03/18 03:09:46;;;;;;;17.00;9.53;;;1.90;1.00;;;;;;4983828;28;20220;-63
2022/03/18 03:12:13;;;;;;;15.60;10.07;;;2.00;1.00;;;;;;4983578;28;20221;-63
2022/03/18 03:14:40;;;;;;;14.17;9.70;;;1.90;1.00;;;;;;4984900;28;20276;-63
2022/03/18 03:17:07;;;;;;;19.87;10.23;;;1.90;1.00;;;;;;4984123;28;20202;-62
2022/03/18 03:19:36;;;;;;;16.90;10.17;;;1.80;1.00;;;;;;4985644;28;20582;-62
2022/03/18 03:22:08;;;;;;;16.17;9.37;;;1.80;1.00;;;;;;4982571;28;20237;-63
2022/03/18 03:24:39;;;;;;;16.53;10.30;;;1.80;1.00;;;;;;4999077;28;20691;-63
2022/03/18 03:27:05;;;;;;;18.67;11.10;;;1.90;1.00;;;;;;4998582;28;20209;-63
2022/03/18 03:29:32;;;;;;;18.57;11.03;;;1.80;1.00;;;;;;4983305;28;20631;-62
2022/03/18 03:31:59;;;;;;;18.50;10.17;;;1.80;1.00;;;;;;4999209;28;20684;-62
2022/03/18 03:34:29;;;;;;;12.10;9.70;;;1.70;99.90;;;;;;4989834;28;20197;-62
2022/03/18 03:36:56;;;;;;;17.83;11.80;;;1.70;99.90;;;;;;4983211;28;20206;-61
2022/03/18 03:39:25;;;;;;;15.17;10.97;;;1.60;99.90;;;;;;4986689;28;20244;-61
2022/03/18 03:41:52;;;;;;;16.87;10.17;;;1.50;99.90;;;;;;4983861;28;20317;-62
2022/03/18 03:44:18;;;;;;;21.20;10.70;;;1.40;1.00;;;;;;5000570;28;20197;-62
2022/03/18 03:46:47;;;;;;;14.73;9.67;;;1.90;1.00;;;;;;4984443;28;20201;-62
2022/03/18 03:49:17;;;;;;;17.53;10.80;;;1.30;99.90;;;;;;4983203;28;20609;-62
2022/03/18 03:51:45;;;;;;;18.73;10.23;;;1.30;99.90;;;;;;4997770;28;20638;-62
2022/03/18 03:54:12;;;;;;;17.70;12.10;;;1.20;6.70;;;;;;4998548;28;20260;-62
2022/03/18 03:56:38;;;;;;;15.97;12.57;;;1.20;1.00;;;;;;4989975;28;20309;-62
2022/03/18 03:59:06;;;;;;;17.13;12.20;;;1.20;1.00;;;;;;4985794;28;20206;-63
2022/03/18 04:01:33;;;;;;;16.67;11.37;;;1.20;1.00;;;;;;4990817;28;20226;-62
2022/03/18 04:04:00;;;;;;;16.90;11.30;;;1.20;1.00;;;;;;4987748;28;20570;-61
2022/03/18 04:06:27;;;;;;;17.93;11.13;;;1.20;1.00;;;;;;4997261;28;20731;-61
2022/03/18 04:08:54;;;;;;;15.37;10.87;;;1.40;1.00;;;;;;4980454;28;20341;-62
2022/03/18 04:11:21;;;;;;;16.57;10.13;;;1.40;1.00;;;;;;4988624;28;20201;-62
2022/03/18 04:13:48;;;;;;;13.47;10.43;;;1.40;1.00;;;;;;4982599;28;20216;-62
2022/03/18 04:16:15;;;;;;;13.43;8.50;;;1.30;99.90;;;;;;4997531;28;20202;-63
2022/03/18 04:18:42;;;;;;;12.90;8.47;;;1.20;1.00;;;;;;4981448;28;20198;-62
2022/03/18 04:21:09;;;;;;;12.17;8.40;;;1.10;1.00;;;;;;4988110;28;20201;-62
2022/03/18 04:23:36;;;;;;;16.27;9.17;;;1.00;1.00;;;;;;4996512;28;20216;-62
2022/03/18 04:26:03;;;;;;;15.37;8.87;;;1.00;1.00;;;;;;4982222;28;20344;-62
2022/03/18 04:28:30;;;;;;;15.27;9.93;;;0.90;1.00;;;;;;4997695;28;20269;-62
2022/03/18 04:30:57;;;;;;;11.77;8.93;;;0.90;1.00;;;;;;4996856;28;20200;-62
2022/03/18 04:33:24;;;;;;;16.27;8.93;;;0.80;1.00;;;;;;4970362;28;20209;-62
2022/03/18 04:35:51;;;;;;;14.53;9.20;;;0.80;1.00;;;;;;4988342;28;20209;-62
2022/03/18 04:38:20;;;;;;;15.33;9.40;;;0.70;99.90;;;;;;4980840;28;20626;-63
2022/03/18 04:40:47;;;;;;;15.93;9.03;;;0.80;99.90;;;;;;4997963;28;20235;-63
2022/03/18 04:43:18;;;;;;;13.73;8.87;;;0.70;40.00;;;;;;4971667;28;20604;-62
2022/03/18 04:45:45;;;;;;;17.10;9.13;;;0.70;99.90;;;;;;4987260;28;20659;-62
2022/03/18 04:48:12;;;;;;;14.70;9.27;;;0.60;99.90;;;;;;4995595;28;20237;-62
2022/03/18 04:50:39;;;;;;;15.30;9.10;;;0.60;99.90;;;;;;4987439;28;20230;-62
2022/03/18 04:53:06;;;;;;;14.07;9.50;;;0.50;99.90;;;;;;4987545;28;21175;-63
2022/03/18 04:55:38;;;;;;;13.73;9.00;;;0.50;1.00;;;;;;4972090;28;20689;-63
2022/03/18 04:58:05;;;;;;;15.37;10.17;;;0.50;1.00;;;;;;4987366;28;20256;-62
2022/03/18 05:00:32;;;;;;;15.77;9.70;;;0.40;1.00;;;;;;4996345;28;20300;-62
2022/03/18 05:03:00;;;;;;;19.13;10.37;;;0.30;1.00;;;;;;4996515;28;20206;-63
2022/03/18 05:05:27;;;;;;;13.97;10.47;;;0.30;1.00;;;;;;4982086;28;20229;-62
2022/03/18 05:07:57;;;;;;;16.23;10.30;;;0.20;99.90;;;;;;4986452;28;20285;-62
2022/03/18 05:10:24;;;;;;;21.80;10.53;;;0.20;46.10;;;;;;4988905;28;20909;-63
2022/03/18 05:12:53;;;;;;;16.17;10.13;;;0.20;69.50;;;;;;4983342;28;20272;-63
2022/03/18 05:15:20;;;;;;;21.23;11.80;;;0.10;43.50;;;;;;4980961;28;20194;-64
2022/03/18 05:17:51;;;;;;;23.33;12.10;;;0.20;99.90;;;;;;4997586;28;20237;-64
2022/03/18 05:20:18;;;;;;;23.83;12.23;;;0.20;99.90;;;;;;4997220;28;20239;-62
2022/03/18 05:22:47;;;;;;;20.07;11.97;;;0.20;99.90;;;;;;4996179;28;20700;-62
2022/03/18 05:25:17;;;;;;;21.67;12.03;;;0.20;99.90;;;;;;4982233;28;20252;-63
2022/03/18 05:27:44;;;;;;;20.80;12.17;;;0.20;99.40;;;;;;4985527;28;20210;-62
2022/03/18 05:30:20;;;;;;;20.60;12.10;;;0.20;99.90;;;;;;4991099;28;20217;-62
2022/03/18 05:32:48;;;;;;;21.43;11.93;;;0.20;99.90;;;;;;4979729;28;20674;-62
2022/03/18 05:35:18;;;;;;;19.00;12.57;;;0.20;99.90;;;;;;4992236;28;20209;-63
2022/03/18 05:37:48;;;;;;;15.80;12.17;;;0.20;99.90;;;;;;4981324;28;20621;-63
2022/03/18 05:40:19;;;;;;;19.67;11.60;;;0.10;99.90;;;;;;4978267;28;20662;-63
2022/03/18 05:42:48;;;;;;;22.10;11.40;;;0.20;99.90;;;;;;4995865;28;20257;-63
2022/03/18 05:45:16;;;;;;;25.03;14.43;;;0.20;99.90;;;;;;4968152;28;20197;-62
2022/03/18 05:47:43;;;;;;;29.77;16.57;;;0.30;99.90;;;;;;4994725;28;20676;-62
2022/03/18 05:50:15;;;;;;;23.13;14.20;;;0.30;99.90;;;;;;4970088;28;20251;-63
2022/03/18 05:52:45;;;;;;;26.23;14.40;;;0.40;26.60;;;;;;4975367;28;20704;-62
2022/03/18 05:55:12;;;;;;;28.17;16.37;;;0.40;1.00;;;;;;4996312;28;20229;-62
2022/03/18 05:57:39;;;;;;;22.90;15.03;;;0.50;1.00;;;;;;4997591;28;20198;-62
2022/03/18 06:00:07;;;;;;;23.50;13.33;;;0.50;1.00;;;;;;4996982;28;20308;-64
2022/03/18 06:02:40;;;;;;;21.40;12.67;;;0.50;1.00;;;;;;4993372;28;20198;-62
2022/03/18 06:05:09;;;;;;;20.43;13.10;;;0.60;99.90;;;;;;4984525;28;20220;-64
2022/03/18 06:07:37;;;;;;;22.90;13.67;;;0.70;99.90;;;;;;4998930;28;20597;-63
2022/03/18 06:12:50;;;;;;;26.43;16.90;;;1.00;65.60;;;;;;4987165;28;20216;-63
2022/03/18 06:15:19;;;;;;;26.33;19.03;;;1.30;1.00;;;;;;4999010;28;20205;-64
2022/03/18 06:17:48;;;;;;;29.97;17.97;;;1.60;1.00;;;;;;4999872;28;20288;-62
2022/03/18 06:20:15;;;;;;;28.70;17.73;;;1.80;1.00;;;;;;4990341;28;20213;-64
2022/03/18 06:22:44;;;;;;;21.93;15.83;;;2.30;99.90;;;;;;5000046;28;20776;-64
2022/03/18 06:25:11;;;;;;;21.40;13.23;;;3.30;1.00;;;;;;4998416;28;20206;-61
2022/03/18 06:27:38;;;;;;;17.83;11.37;;;5.10;1.00;;;;;;4969742;28;20213;-63
2022/03/18 06:30:05;;;;;;;19.07;10.77;;;7.40;1.00;;;;;;4999914;28;20210;-63
2022/03/18 06:32:34;;;;;;;19.13;12.10;;;7.40;1.00;;;;;;4990631;28;20761;-62
2022/03/18 06:35:01;;;;;;;17.50;11.60;;;7.80;1.00;;;;;;5000388;28;20229;-64
2022/03/18 06:37:30;;;;;;;21.17;11.07;;;9.30;99.90;;;;;;4986207;28;20202;-63
2022/03/18 06:39:57;;;;;;;19.20;10.47;;;11.20;99.90;;;;;;5001608;28;20241;-63
2022/03/18 06:42:25;;;;;;;14.43;9.43;;;11.50;1.00;;;;;;4987915;28;20230;-63
2022/03/18 06:44:52;;;;;;;15.83;10.30;;;12.80;1.00;;;;;;5001771;28;20232;-63
2022/03/18 06:47:19;;;;;;;15.73;9.67;;;13.20;1.00;;;;;;4986164;28;20220;-63
2022/03/18 06:49:48;;;;;;;15.47;10.07;;;14.50;1.00;;;;;;4985953;28;20628;-63
2022/03/18 06:52:15;;;;;;;17.63;9.87;;;13.80;1.00;;;;;;4984801;28;20297;-62
2022/03/18 06:54:42;;;;;;;13.63;8.43;;;15.10;1.00;;;;;;4998924;28;20202;-63
2022/03/18 06:57:12;;;;;;;14.63;11.10;;;15.20;1.00;;;;;;4999059;28;20197;-63
2022/03/18 06:59:39;;;;;;;13.88;10.20;;;14.20;1.00;;;;;;4991730;28;20301;-63
2022/03/18 07:02:06;;;;;;;13.73;8.88;;;14.70;1.00;;;;;;4983194;28;20220;-63
2022/03/18 07:04:38;;;;;;;12.63;7.75;;;14.80;1.00;;;;;;5001235;28;20732;-63
2022/03/18 07:07:06;;;;;;;11.88;7.97;;;14.10;1.00;;;;;;4983288;28;20198;-63
2022/03/18 07:09:36;;;;;;;14.68;8.20;;;16.00;1.00;;;;;;4984506;28;20236;-63
2022/03/18 07:12:04;;;;;;;11.05;5.43;;;17.70;1.00;;;;;;4986016;28;20255;-63
2022/03/18 07:14:31;;;;;;;9.32;5.20;;;18.90;1.00;;;;;;4986637;28;20190;-63
2022/03/18 07:19:44;;;;;;;12.52;6.93;;;20.20;99.90;;;;;;4988463;28;20212;-63
2022/03/18 07:22:16;;;;;;;11.88;6.93;;;16.80;99.90;;;;;;4990230;28;20616;-63
2022/03/18 07:24:42;;;;;;;11.48;6.35;;;16.60;1.00;;;;;;4999989;28;20602;-63
2022/03/18 07:27:12;;;;;;;12.70;7.03;;;18.20;1.00;;;;;;5001864;28;20684;-63
2022/03/18 07:29:41;;;;;;;15.45;6.38;;;18.00;99.90;;;;;;4991531;28;20198;-63
2022/03/18 07:32:10;;;;;;;11.82;6.28;;;15.90;99.90;;;;;;4984745;28;20214;-63
2022/03/18 07:34:37;;;;;;;11.38;6.13;;;14.60;1.00;;;;;;4991144;28;20252;-63
2022/03/18 07:37:05;;;;;;;10.48;5.60;;;14.50;1.00;;;;;;4993139;28;20660;-63
2022/03/18 07:39:31;;;;;;;9.80;5.93;;;15.30;1.00;;;;;;4984413;28;20224;-64
2022/03/18 07:41:58;;;;;;;13.02;7.68;;;15.80;1.00;;;;;;5003319;28;20234;-63
2022/03/18 07:44:28;;;;;;;12.70;6.20;;;17.90;1.00;;;;;;4998920;28;20256;-63
2022/03/18 07:46:55;;;;;;;13.32;6.55;;;17.10;1.00;;;;;;5002602;28;20644;-64
2022/03/18 07:49:23;;;;;;;10.60;5.90;;;18.60;99.90;;;;;;4985706;28;20205;-62
2022/03/18 07:51:50;;;;;;;9.48;5.85;;;19.60;99.90;;;;;;5001401;28;20253;-63
2022/03/18 07:54:19;;;;;;;10.93;5.97;;;17.10;99.90;;;;;;4990464;28;20289;-62
2022/03/18 07:56:50;;;;;;;14.35;6.57;;;17.20;99.90;;;;;;4974344;28;20197;-62
2022/03/18 07:59:19;;;;;;;11.70;6.53;;;18.20;99.90;;;;;;4997781;28;20405;-62
2022/03/18 08:01:46;;;;;;;12.48;6.43;;;20.40;99.90;;;;;;5000098;28;20244;-62
2022/03/18 08:04:13;;;;;;;11.57;6.90;;;20.30;99.90;;;;;;4986372;28;20197;-62
2022/03/18 08:06:43;;;;;;;22.10;7.10;;;19.70;99.90;;;;;;4981523;28;20264;-63
2022/03/18 08:09:13;;;;;;;16.67;7.32;;;21.00;99.90;;;;;;4984202;28;20206;-63
2022/03/18 08:11:42;;;;;;;12.07;7.63;;;23.00;99.90;;;;;;4983574;28;20213;-63
2022/03/18 08:14:09;;;;;;;13.88;7.03;;;22.50;99.90;;;;;;4989221;28;20228;-63
2022/03/18 08:16:36;;;;;;;10.00;6.68;;;22.20;99.90;;;;;;4981373;28;20538;-63
2022/03/18 08:19:03;;;;;;;11.65;6.85;;;22.80;99.90;;;;;;4973757;28;20253;-63
2022/03/18 08:21:32;;;;;;;11.32;7.28;;;21.40;99.90;;;;;;4987883;28;20205;-63
2022/03/18 08:24:02;;;;;;;10.95;6.72;;;19.90;99.90;;;;;;4997808;28;20257;-64
2022/03/18 08:26:34;;;;;;;14.32;7.05;;;23.40;99.90;;;;;;5004919;28;20201;-64
2022/03/18 08:29:04;;;;;;;12.90;7.75;;;24.60;99.90;;;;;;4989352;28;20193;-64
2022/03/18 08:31:31;;;;;;;26.05;16.25;;;25.80;99.90;;;;;;4980993;28;20304;-63
2022/03/18 08:33:59;;;;;;;19.25;15.60;;;28.10;99.90;;;;;;4982969;28;20213;-63
2022/03/18 08:36:26;;;;;;;29.10;19.50;;;25.90;99.90;;;;;;4983647;28;20266;-64
2022/03/18 08:38:55;;;;;;;18.10;12.30;;;24.40;99.90;;;;;;4996119;28;20293;-64
2022/03/18 08:41:22;;;;;;;10.13;6.80;;;23.60;99.90;;;;;;4988848;28;20206;-66
2022/03/18 08:43:52;;;;;;;10.90;6.50;;;24.30;99.90;;;;;;4988692;28;20194;-63
2022/03/18 08:46:19;;;;;;;10.38;6.60;;;21.80;99.90;;;;;;4984310;28;20720;-65
2022/03/18 08:48:46;;;;;;;10.90;6.25;;;19.60;99.90;;;;;;4983071;28;20289;-63
2022/03/18 08:51:13;;;;;;;15.05;7.45;;;17.10;99.90;;;;;;4982291;28;20210;-63
2022/03/18 08:53:40;;;;;;;17.90;10.57;;;14.50;1.00;;;;;;4985377;28;20225;-62
2022/03/18 08:56:07;;;;;;;12.45;7.45;;;13.10;1.00;;;;;;4998579;28;20201;-63
2022/03/18 08:58:36;;;;;;;12.93;7.03;;;12.90;1.00;;;;;;4999089;28;20205;-63
2022/03/18 09:01:05;;;;;;;12.57;6.50;;;16.60;1.00;;;;;;5000234;28;20194;-64
2022/03/18 09:03:32;;;;;;;12.00;6.25;;;22.00;99.90;;;;;;4983151;28;20653;-64
2022/03/18 09:06:03;;;;;;;11.63;5.65;;;25.20;99.90;;;;;;4987932;28;20252;-64
2022/03/18 09:08:30;;;;;;;8.63;5.60;;;27.80;99.90;;;;;;4999804;28;20286;-63
2022/03/18 09:10:57;;;;;;;7.82;5.25;;;29.00;99.90;;;;;;4983441;28;20278;-65
2022/03/18 09:13:26;;;;;;;13.48;5.75;;;28.00;99.90;;;;;;4972424;28;20240;-65
2022/03/18 09:15:53;;;;;;;7.40;4.28;;;28.00;99.90;;;;;;4985891;28;20261;-63
2022/03/18 09:18:26;;;;;;;8.48;4.30;;;25.90;99.90;;;;;;4983649;28;20193;-63
2022/03/18 09:20:56;;;;;;;9.52;4.40;;;25.00;99.90;;;;;;4998020;28;20648;-63
2022/03/18 09:23:23;;;;;;;8.75;4.15;;;25.40;99.90;;;;;;4996878;28;20225;-64
2022/03/18 09:25:51;;;;;;;9.88;4.80;;;26.10;99.90;;;;;;4982662;28;20263;-63
2022/03/18 09:28:18;;;;;;;9.88;4.50;;;25.90;99.90;;;;;;4983397;28;20202;-63
2022/03/18 09:30:52;;;;;;;9.75;4.57;;;26.40;99.90;;;;;;4983153;28;20295;-64
2022/03/18 09:33:19;;;;;;;10.35;4.82;;;25.30;99.90;;;;;;4997712;28;20201;-63
2022/03/18 09:35:49;;;;;;;9.93;4.57;;;27.60;99.90;;;;;;4998232;28;20233;-64
2022/03/18 09:38:18;;;;;;;8.25;3.97;;;28.70;99.90;;;;;;4982136;28;20201;-63
2022/03/18 09:40:45;;;;;;;10.70;4.43;;;28.00;99.90;;;;;;4998710;28;20289;-64
2022/03/18 09:43:34;;;;;;;7.07;4.00;;;26.70;99.90;;;;;;4981863;28;20234;-64
2022/03/18 09:46:06;;;;;;;8.30;3.90;;;26.10;99.90;;;;;;4989281;28;20209;-63
2022/03/18 09:48:54;;;;;;;6.88;3.78;;;26.00;99.90;;;;;;4982613;28;20205;-63
2022/03/18 09:51:21;;;;;;;8.40;4.10;;;26.80;99.90;;;;;;4995803;28;20339;-64
2022/03/18 09:54:11;;;;;;;7.90;3.95;;;27.00;99.90;;;;;;4982260;28;20678;-63
2022/03/18 09:56:40;;;;;;;8.07;3.88;;;27.10;99.90;;;;;;4997549;28;20186;-64
2022/03/18 09:59:10;;;;;;;7.72;4.03;;;25.80;99.90;;;;;;4982646;28;20185;-65
2022/03/18 10:01:38;;;;;;;7.85;4.80;;;24.80;99.90;;;;;;4981322;28;20198;-64
2022/03/18 10:04:10;;;;;;;10.48;4.60;;;24.60;99.90;;;;;;4997772;28;20209;-64
2022/03/18 10:06:38;;;;;;;9.30;4.13;;;26.20;99.90;;;;;;4979625;28;20285;-64
2022/03/18 10:09:06;;;;;;;10.38;4.50;;;26.50;99.90;;;;;;4983911;28;20595;-63
2022/03/18 10:11:43;;;;;;;9.10;3.92;;;24.50;99.90;;;;;;5014472;28;20217;-64
2022/03/18 10:14:24;;;;;;;11.15;4.13;;;24.20;99.90;;;;;;5014459;28;20189;-64
2022/03/18 10:16:51;;;;;;;8.30;3.95;;;24.40;99.90;;;;;;4981560;28;20546;-66
2022/03/18 10:19:21;;;;;;;8.60;4.25;;;24.10;99.90;;;;;;4996278;28;20551;-64
2022/03/18 10:22:05;;;;;;;7.50;3.92;;;25.20;99.90;;;;;;4987928;28;20209;-63
2022/03/18 10:24:34;;;;;;;6.85;4.22;;;25.90;99.90;;;;;;4997536;28;20223;-65
2022/03/18 10:27:13;;;;;;;8.13;4.22;;;24.60;99.90;;;;;;4982127;28;20214;-63
2022/03/18 10:29:53;;;;;;;10.82;4.80;;;25.80;99.90;;;;;;4980205;28;20706;-62
2022/03/18 10:32:27;;;;;;;10.57;4.78;;;25.40;99.90;;;;;;4981230;28;20346;-64
2022/03/18 10:37:52;;;;;;;10.80;4.80;;;28.10;99.90;;;;;;4980658;28;20563;-64
2022/03/18 10:40:35;;;;;;;10.38;4.93;;;25.80;99.90;;;;;;4978618;28;20644;-65
2022/03/18 10:43:07;;;;;;;8.65;4.85;;;24.50;99.90;;;;;;4978609;28;20229;-63
2022/03/18 10:45:34;;;;;;;6.18;4.68;;;23.20;99.90;;;;;;4996931;28;20248;-63
2022/03/18 10:48:15;;;;;;;10.13;5.13;;;23.80;99.90;;;;;;4984250;28;20205;-63
2022/03/18 10:50:45;;;;;;;8.52;5.03;;;23.30;99.90;;;;;;4989098;28;20210;-63
2022/03/18 10:53:13;;;;;;;10.68;4.70;;;23.20;99.90;;;;;;4991719;28;20229;-65
2022/03/18 10:55:42;;;;;;;8.13;4.43;;;23.30;99.90;;;;;;4982595;28;20202;-63
2022/03/18 10:58:17;;;;;;;11.57;4.78;;;22.90;99.90;;;;;;4982133;28;20257;-65
2022/03/18 11:00:50;;;;;;;10.10;4.47;;;23.40;99.90;;;;;;4981862;28;20220;-64
2022/03/18 11:03:18;;;;;;;10.25;4.50;;;23.60;99.90;;;;;;4995691;28;20217;-63
2022/03/18 11:05:47;;;;;;;8.88;4.55;;;23.30;99.90;;;;;;4983766;28;20206;-63
2022/03/18 11:08:21;;;;;;;9.38;4.30;;;22.10;99.90;;;;;;4977782;28;20201;-64
2022/03/18 11:14:06;;;;;;;7.97;4.55;;;21.10;99.90;;;;;;4982700;28;20194;-64
2022/03/18 11:16:38;;;;;;;8.10;4.50;;;21.90;99.90;;;;;;4997626;28;20226;-63
2022/03/18 11:19:18;;;;;;;9.65;4.82;;;20.30;99.90;;;;;;4983646;28;20218;-63
2022/03/18 11:21:50;;;;;;;11.30;4.75;;;21.50;99.90;;;;;;4983337;28;20198;-63
2022/03/18 11:24:25;;;;;;;10.43;4.68;;;22.30;99.90;;;;;;4982909;28;20789;-64
2022/03/18 11:26:53;;;;;;;9.10;6.10;;;23.10;99.90;;;;;;5000478;28;20223;-63
2022/03/18 11:29:26;;;;;;;10.63;4.85;;;22.60;99.90;;;;;;4983242;28;20205;-63
2022/03/18 11:32:12;;;;;;;7.05;3.95;;;20.80;99.90;;;;;;4998660;28;20305;-63
2022/03/18 11:34:50;;;;;;;8.43;4.05;;;20.40;99.90;;;;;;4981227;28;20213;-63
2022/03/18 11:37:22;;;;;;;8.82;4.43;;;19.10;99.90;;;;;;4982527;28;20197;-63
2022/03/18 11:39:49;;;;;;;9.55;4.43;;;18.90;99.90;;;;;;4986864;28;20226;-63
2022/03/18 11:42:20;;;;;;;8.57;4.82;;;19.00;99.90;;;;;;4986164;28;20320;-63
2022/03/18 11:45:01;;;;;;;8.75;4.63;;;19.40;99.90;;;;;;4983229;28;20194;-63
2022/03/18 11:47:30;;;;;;;10.55;4.28;;;20.40;99.90;;;;;;4979908;28;20624;-63
2022/03/18 11:50:38;;;;;;;9.30;4.70;;;21.10;99.90;;;;;;4997478;28;20669;-63
2022/03/18 11:53:06;;;;;;;8.88;4.38;;;21.40;99.90;;;;;;4996088;28;20293;-63
2022/03/18 11:55:36;;;;;;;11.07;4.55;;;20.70;99.90;;;;;;4983940;28;20680;-63
2022/03/18 11:58:28;;;;;;;8.63;4.10;;;20.60;99.90;;;;;;4987850;28;20565;-63
2022/03/18 12:00:55;;;;;;;8.02;4.07;;;20.20;99.90;;;;;;4981898;28;20669;-63
2022/03/18 12:03:28;;;;;;;9.02;4.68;;;20.10;99.90;;;;;;4963582;28;20206;-63
2022/03/18 12:05:58;;;;;;;7.88;4.22;;;19.60;99.90;;;;;;4980143;28;20203;-62
2022/03/18 12:08:50;;;;;;;5.70;4.00;;;19.20;99.90;;;;;;4986996;28;20201;-64
2022/03/18 12:11:36;;;;;;;7.25;4.28;;;18.80;99.90;;;;;;4996396;28;20222;-64
2022/03/18 12:14:10;;;;;;;10.40;5.00;;;18.90;99.90;;;;;;4985353;28;20526;-64
2022/03/18 12:16:37;;;;;;;5.90;4.10;;;19.10;99.90;;;;;;4986326;28;20646;-63
2022/03/18 12:19:24;;;;;;;8.77;4.85;;;18.70;99.90;;;;;;4986161;28;20208;-63
2022/03/18 12:21:51;;;;;;;9.05;4.60;;;18.60;99.90;;;;;;4993117;28;20272;-64
2022/03/18 12:24:28;;;;;;;10.45;4.95;;;18.70;99.90;;;;;;4980575;28;20597;-62
2022/03/18 12:27:00;;;;;;;9.82;4.75;;;18.50;99.90;;;;;;4981802;28;20679;-63
2022/03/18 12:29:29;;;;;;;11.38;4.50;;;18.20;99.90;;;;;;4996502;28;20206;-63
2022/03/18 12:32:16;;;;;;;7.43;4.60;;;18.70;99.90;;;;;;4985912;28;20301;-63
2022/03/18 12:34:52;;;;;;;8.65;4.25;;;19.20;99.90;;;;;;4980286;28;20202;-63
2022/03/18 12:37:25;;;;;;;8.07;4.57;;;20.30;99.90;;;;;;4984375;28;20312;-63
2022/03/18 12:40:10;;;;;;;10.15;4.68;;;20.30;99.90;;;;;;4979518;28;20219;-63
2022/03/18 12:42:58;;;;;;;7.70;4.70;;;20.00;99.90;;;;;;4985862;28;20708;-63
2022/03/18 12:45:31;;;;;;;8.52;4.80;;;19.50;99.90;;;;;;4981386;28;20278;-63
2022/03/18 12:48:01;;;;;;;6.88;4.72;;;19.00;99.90;;;;;;4982412;28;20676;-63
2022/03/18 12:50:31;;;;;;;9.90;4.43;;;17.50;99.90;;;;;;4996459;28;20312;-63
2022/03/18 12:53:01;;;;;;;12.40;4.82;;;17.90;99.90;;;;;;4996889;28;20622;-64
2022/03/18 12:55:30;;;;;;;10.77;4.90;;;17.80;99.90;;;;;;4986627;28;20292;-63
2022/03/18 12:58:27;;;;;;;9.20;4.93;;;17.20;99.90;;;;;;4974906;28;20213;-63
2022/03/18 13:00:56;;;;;;;8.20;4.75;;;17.00;99.90;;;;;;4984464;28;20217;-63
2022/03/18 13:03:31;;;;;;;11.30;5.20;;;17.70;99.90;;;;;;4977489;28;21066;-63
2022/03/18 13:06:18;;;;;;;8.82;4.65;;;16.90;99.90;;;;;;4980724;28;20495;-63
2022/03/18 13:08:50;;;;;;;10.52;5.30;;;16.70;99.90;;;;;;4996463;28;20229;-63
2022/03/18 13:11:17;;;;;;;9.40;5.22;;;16.80;99.90;;;;;;4981160;28;20328;-63
2022/03/18 13:13:50;;;;;;;7.03;4.18;;;16.30;99.90;;;;;;4981394;28;20605;-64
2022/03/18 13:16:24;;;;;;;12.02;5.18;;;16.30;99.90;;;;;;4984323;28;20657;-64